Time;durP1;ratioP1;P1;durP2;ratioP2;P2;SDS_P1;SDS_P2;PMS_P1;PMS_P2;Temp;Humidity;BMP_temperature;BMP_pressure;BME280_temperature;BME280_humidity;BME280_pressure;Samples;Min_cycle;Max_cycle;Signal;HPM_P1;HPM_P2
2021/10/24 00:01:27;;;;;;;10.00;5.57;;;;;;;2.68;81.40;96531.53;5014928;28;20190;-79
2021/10/24 00:03:52;;;;;;;6.70;4.40;;;;;;;2.62;81.04;96539.50;5030223;28;20663;-80
2021/10/24 00:06:17;;;;;;;9.43;4.47;;;;;;;2.62;81.83;96531.81;5013480;28;20190;-79
2021/10/24 00:08:43;;;;;;;8.23;5.00;;;;;;;2.73;80.70;96538.06;5030457;28;20218;-79
2021/10/24 00:11:08;;;;;;;6.70;4.67;;;;;;;2.70;80.41;96535.66;5014480;28;20185;-79
2021/10/24 00:13:33;;;;;;;9.83;5.00;;;;;;;2.72;80.74;96538.97;5030004;28;20266;-80
2021/10/24 00:15:59;;;;;;;9.37;4.97;;;;;;;2.75;80.43;96533.72;5014416;28;20599;-78
2021/10/24 00:18:25;;;;;;;8.63;5.33;;;;;;;2.78;80.52;96535.28;5014796;28;20202;-78
2021/10/24 00:20:51;;;;;;;6.70;4.27;;;;;;;2.74;79.77;96531.19;5031195;28;20176;-78
2021/10/24 00:23:17;;;;;;;9.67;4.90;;;;;;;2.76;80.27;96532.81;5014311;28;20262;-79
2021/10/24 00:25:42;;;;;;;9.27;5.07;;;;;;;2.75;80.49;96527.75;5013542;28;20769;-78
2021/10/24 00:28:08;;;;;;;10.70;4.83;;;;;;;2.69;80.54;96528.88;5014032;28;20302;-78
2021/10/24 00:30:33;;;;;;;9.67;5.20;;;;;;;2.73;79.89;96516.72;5030430;28;20582;-78
2021/10/24 00:33:02;;;;;;;9.70;5.10;;;;;;;2.70;80.14;96527.97;5016776;28;20193;-78
2021/10/24 00:35:28;;;;;;;7.87;4.20;;;;;;;2.69;80.28;96522.91;5037467;28;20190;-78
2021/10/24 00:37:53;;;;;;;9.37;4.70;;;;;;;2.72;79.98;96513.31;5030707;28;20214;-79
2021/10/24 00:40:18;;;;;;;8.73;4.83;;;;;;;2.71;79.95;96515.97;5031269;28;20196;-79
2021/10/24 00:42:45;;;;;;;7.73;4.50;;;;;;;2.72;79.95;96509.94;5051751;28;20191;-79
2021/10/24 00:45:10;;;;;;;8.37;5.33;;;;;;;2.73;79.88;96507.28;5016830;28;20187;-79
2021/10/24 00:47:36;;;;;;;7.07;5.13;;;;;;;2.70;79.59;96511.75;5033894;28;20616;-80
2021/10/24 00:50:01;;;;;;;7.67;4.07;;;;;;;2.67;79.89;96509.34;5026797;28;20696;-80
2021/10/24 00:52:26;;;;;;;5.80;4.17;;;;;;;2.52;79.78;96503.22;5019935;28;20183;-80
2021/10/24 00:54:52;;;;;;;11.23;5.87;;;;;;;2.50;80.09;96499.91;5030648;28;20183;-77
2021/10/24 00:57:17;;;;;;;7.93;5.07;;;;;;;2.58;79.98;96505.50;5033950;28;20186;-78
2021/10/24 00:59:42;;;;;;;7.37;4.33;;;;;;;2.54;79.92;96502.22;5034540;28;20171;-79
2021/10/24 01:02:07;;;;;;;8.03;4.73;;;;;;;2.52;80.20;96496.38;5034310;28;20188;-79
2021/10/24 01:04:33;;;;;;;6.23;4.40;;;;;;;2.46;80.16;96493.25;5033697;28;20599;-79
2021/10/24 01:07:03;;;;;;;8.40;4.70;;;;;;;2.51;80.56;96489.56;5033304;28;20187;-79
2021/10/24 01:09:30;;;;;;;8.33;4.77;;;;;;;2.43;80.74;96490.84;5018040;28;20706;-78
2021/10/24 01:11:55;;;;;;;6.77;4.87;;;;;;;2.41;80.82;96496.06;5034146;28;20182;-78
2021/10/24 01:14:21;;;;;;;11.60;5.20;;;;;;;2.39;80.87;96484.22;5033455;28;20197;-79
2021/10/24 01:16:46;;;;;;;8.70;5.43;;;;;;;2.37;81.07;96486.84;5017563;28;20237;-79
2021/10/24 01:19:12;;;;;;;8.03;4.57;;;;;;;2.30;81.38;96484.66;5034166;28;20237;-79
2021/10/24 01:21:38;;;;;;;12.10;5.00;;;;;;;2.26;80.97;96484.81;5033859;28;20176;-79
2021/10/24 01:24:04;;;;;;;7.20;5.17;;;;;;;2.23;81.17;96479.03;5000532;28;20250;-79
2021/10/24 01:26:31;;;;;;;12.10;4.93;;;;;;;2.19;81.65;96480.06;5001315;28;20221;-78
2021/10/24 01:28:57;;;;;;;9.67;5.10;;;;;;;2.13;81.69;96478.63;5014798;28;20211;-80
2021/10/24 01:31:22;;;;;;;10.63;5.47;;;;;;;2.14;81.98;96476.91;5017086;28;20231;-81
2021/10/24 01:33:48;;;;;;;10.10;5.00;;;;;;;2.10;81.85;96477.94;5016800;28;20186;-80
2021/10/24 01:36:13;;;;;;;10.37;4.90;;;;;;;2.08;81.73;96474.63;5016864;28;20564;-78
2021/10/24 01:38:44;;;;;;;7.13;5.13;;;;;;;2.05;81.91;96465.34;5017518;28;20214;-79
2021/10/24 01:41:10;;;;;;;7.43;5.30;;;;;;;2.08;82.29;96466.94;5017429;28;20183;-79
2021/10/24 01:43:35;;;;;;;7.97;5.33;;;;;;;2.00;81.97;96467.28;5016982;28;20601;-79
2021/10/24 01:46:01;;;;;;;7.40;4.67;;;;;;;2.02;81.86;96464.66;5017125;28;20195;-79
2021/10/24 01:48:26;;;;;;;9.73;5.13;;;;;;;1.95;82.46;96457.28;5017110;28;20261;-80
2021/10/24 01:50:53;;;;;;;6.10;4.83;;;;;;;2.01;82.51;96452.75;5016852;28;20286;-80
2021/10/24 01:53:25;;;;;;;9.30;4.77;;;;;;;1.97;82.36;96458.03;5000580;28;20216;-80
2021/10/24 01:55:51;;;;;;;8.53;5.10;;;;;;;1.96;82.72;96453.00;4999360;28;20189;-80
2021/10/24 01:58:17;;;;;;;10.70;5.23;;;;;;;1.92;82.52;96444.59;5016594;28;20194;-79
2021/10/24 02:00:43;;;;;;;8.90;5.10;;;;;;;1.89;83.17;96447.31;5016476;28;20186;-79
2021/10/24 02:03:09;;;;;;;8.80;5.33;;;;;;;1.85;83.25;96443.22;5016939;28;20179;-80
2021/10/24 02:05:35;;;;;;;10.33;5.30;;;;;;;1.88;82.65;96445.66;4998384;28;20214;-80
2021/10/24 02:08:00;;;;;;;10.73;5.30;;;;;;;1.84;82.90;96436.44;4998847;28;20337;-79
2021/10/24 02:10:26;;;;;;;7.70;5.73;;;;;;;1.80;82.98;96431.56;5016263;28;20222;-80
2021/10/24 02:12:51;;;;;;;7.30;5.50;;;;;;;1.88;83.38;96432.03;5016609;28;20179;-80
2021/10/24 02:15:16;;;;;;;6.50;5.20;;;;;;;1.95;82.90;96430.84;5032329;28;20179;-79
2021/10/24 02:17:42;;;;;;;9.53;5.93;;;;;;;1.90;82.33;96431.03;5016082;28;20200;-79
2021/10/24 02:20:09;;;;;;;7.47;5.67;;;;;;;1.85;82.97;96430.41;5016307;28;20205;-79
2021/10/24 02:22:34;;;;;;;13.27;5.27;;;;;;;1.84;82.70;96427.94;5016105;28;20326;-79
2021/10/24 02:25:00;;;;;;;7.93;4.90;;;;;;;1.83;83.07;96429.66;5015281;28;20215;-79
2021/10/24 02:27:25;;;;;;;8.43;5.50;;;;;;;1.83;82.36;96423.72;5015875;28;20615;-80
2021/10/24 02:29:50;;;;;;;7.03;4.63;;;;;;;1.76;83.23;96427.47;5015972;28;20210;-79
2021/10/24 02:32:16;;;;;;;11.97;5.50;;;;;;;1.79;82.95;96430.72;5016415;28;20638;-79
2021/10/24 02:34:41;;;;;;;12.53;5.17;;;;;;;1.82;83.00;96427.19;5016065;28;20225;-80
2021/10/24 02:37:07;;;;;;;7.87;4.63;;;;;;;1.79;82.84;96428.19;5016418;28;20224;-79
2021/10/24 02:39:33;;;;;;;7.40;5.43;;;;;;;1.70;83.35;96413.25;5016589;28;20207;-79
2021/10/24 02:41:58;;;;;;;7.50;5.43;;;;;;;1.74;82.87;96419.03;5016695;28;20553;-79
2021/10/24 02:44:23;;;;;;;8.20;5.47;;;;;;;1.79;82.91;96422.22;4999292;28;20662;-80
2021/10/24 02:46:53;;;;;;;8.30;5.20;;;;;;;1.81;83.10;96420.41;5015331;28;20185;-80
2021/10/24 02:49:19;;;;;;;9.17;5.90;;;;;;;1.65;83.48;96420.31;5015769;28;20269;-79
2021/10/24 02:51:45;;;;;;;9.47;4.97;;;;;;;1.61;83.68;96418.81;5032451;28;20194;-78
2021/10/24 02:54:10;;;;;;;8.30;5.33;;;;;;;1.63;83.92;96420.38;5015730;28;20229;-78
2021/10/24 02:56:35;;;;;;;8.20;5.03;;;;;;;1.65;83.38;96415.19;5016290;28;20174;-79
2021/10/24 02:59:01;;;;;;;8.70;5.47;;;;;;;1.57;83.81;96412.16;5016541;28;20200;-79
2021/10/24 03:01:26;;;;;;;10.57;4.80;;;;;;;1.61;83.52;96404.25;5016484;28;20209;-80
2021/10/24 03:03:51;;;;;;;8.53;5.27;;;;;;;1.54;84.08;96407.19;5000085;28;20220;-79
2021/10/24 03:06:17;;;;;;;7.50;5.20;;;;;;;1.63;83.51;96406.75;5016353;28;20232;-78
2021/10/24 03:08:42;;;;;;;12.47;5.60;;;;;;;1.62;83.79;96405.09;5016296;28;20577;-79
2021/10/24 03:11:07;;;;;;;7.80;5.00;;;;;;;1.69;83.72;96401.34;5016953;28;20182;-78
2021/10/24 03:13:33;;;;;;;10.87;5.63;;;;;;;1.61;83.75;96406.81;5015937;28;20599;-79
2021/10/24 03:15:58;;;;;;;9.23;4.73;;;;;;;1.62;83.69;96399.97;5016430;28;20179;-78
2021/10/24 03:18:23;;;;;;;7.87;5.27;;;;;;;1.66;83.64;96406.59;5015977;28;20238;-80
2021/10/24 03:20:49;;;;;;;8.53;5.37;;;;;;;1.63;83.97;96401.63;5016594;28;20189;-78
2021/10/24 03:23:15;;;;;;;7.23;4.90;;;;;;;1.59;83.64;96394.97;4999229;28;20201;-79
2021/10/24 03:25:40;;;;;;;7.63;5.10;;;;;;;1.56;84.20;96397.69;5014200;28;20179;-79
2021/10/24 03:28:05;;;;;;;8.57;5.70;;;;;;;1.57;84.23;96396.78;5032020;28;20278;-78
2021/10/24 03:30:31;;;;;;;8.63;5.10;;;;;;;1.65;84.01;96397.25;5014805;28;20574;-78
2021/10/24 03:32:56;;;;;;;7.57;5.27;;;;;;;1.60;83.66;96396.66;5014310;28;20174;-78
2021/10/24 03:35:22;;;;;;;8.90;5.20;;;;;;;1.61;84.09;96403.44;5013966;28;20182;-79
2021/10/24 03:37:47;;;;;;;6.93;5.20;;;;;;;1.67;83.67;96403.13;4998070;28;20701;-79
2021/10/24 03:40:12;;;;;;;8.70;5.50;;;;;;;1.61;83.73;96401.72;4998083;28;20182;-79
2021/10/24 03:42:38;;;;;;;8.87;5.33;;;;;;;1.57;84.23;96401.91;5014601;28;20292;-79
2021/10/24 03:45:04;;;;;;;10.07;5.50;;;;;;;1.46;84.56;96411.81;5013828;28;20712;-81
2021/10/24 03:47:30;;;;;;;12.97;5.77;;;;;;;1.52;84.54;96399.56;5014383;28;20179;-79
2021/10/24 03:49:55;;;;;;;9.30;5.13;;;;;;;1.57;84.27;96396.78;5014462;28;20214;-78
2021/10/24 03:52:20;;;;;;;10.73;5.60;;;;;;;1.45;84.24;96399.94;4997995;28;20182;-79
2021/10/24 03:54:45;;;;;;;8.70;5.30;;;;;;;1.41;84.10;96405.22;5030171;28;20236;-79
2021/10/24 03:57:11;;;;;;;6.27;4.77;;;;;;;1.50;84.64;96403.91;5014378;28;20229;-79
2021/10/24 03:59:36;;;;;;;8.00;4.90;;;;;;;1.52;83.95;96407.25;5014350;28;20202;-78
2021/10/24 04:02:01;;;;;;;10.20;5.50;;;;;;;1.51;84.27;96405.59;5014441;28;20190;-79
2021/10/24 04:04:27;;;;;;;9.23;5.33;;;;;;;1.49;84.23;96409.94;5013955;28;20179;-79
2021/10/24 04:06:52;;;;;;;8.40;5.07;;;;;;;1.47;84.17;96416.88;4997065;28;20198;-79
2021/10/24 04:09:17;;;;;;;8.20;5.33;;;;;;;1.42;84.33;96409.41;5030545;28;20225;-78
2021/10/24 04:11:43;;;;;;;6.90;4.80;;;;;;;1.45;84.60;96405.88;5014168;28;20645;-78
2021/10/24 04:14:08;;;;;;;8.03;4.43;;;;;;;1.52;84.38;96414.94;5013891;28;20183;-78
2021/10/24 04:16:34;;;;;;;8.47;5.10;;;;;;;1.45;84.67;96405.06;5015639;28;20182;-80
2021/10/24 04:18:59;;;;;;;7.67;5.37;;;;;;;1.56;84.46;96405.38;5015656;28;20198;-79
2021/10/24 04:21:24;;;;;;;10.30;5.03;;;;;;;1.50;84.15;96411.59;5015514;28;20229;-79
2021/10/24 04:23:49;;;;;;;6.57;5.00;;;;;;;1.51;84.20;96409.91;5013836;28;20197;-79
2021/10/24 04:26:15;;;;;;;9.00;5.07;;;;;;;1.55;84.69;96401.16;4997989;28;20646;-79
2021/10/24 04:28:40;;;;;;;10.70;5.00;;;;;;;1.49;84.60;96397.16;4997924;28;20241;-78
2021/10/24 04:31:05;;;;;;;9.83;5.43;;;;;;;1.50;84.32;96397.97;5000751;28;20186;-80
2021/10/24 04:33:31;;;;;;;10.63;5.33;;;;;;;1.51;84.72;96399.66;5017858;28;20214;-81
2021/10/24 04:35:56;;;;;;;5.97;4.57;;;;;;;1.56;84.76;96400.25;5034607;28;20549;-79
2021/10/24 04:38:21;;;;;;;7.57;5.00;;;;;;;1.57;84.61;96396.78;5026093;28;20519;-79
2021/10/24 04:40:47;;;;;;;8.17;4.93;;;;;;;1.56;84.03;96395.97;5022947;28;20642;-81
2021/10/24 04:43:15;;;;;;;9.07;5.20;;;;;;;1.50;84.34;96392.84;5035119;28;20182;-79
2021/10/24 04:45:41;;;;;;;7.37;5.13;;;;;;;1.44;84.21;96390.59;5016766;28;20258;-79
2021/10/24 04:48:07;;;;;;;5.60;4.70;;;;;;;1.39;84.83;96381.38;5017365;28;20222;-79
2021/10/24 04:50:32;;;;;;;9.20;4.53;;;;;;;1.41;84.69;96389.84;5017362;28;20206;-78
2021/10/24 04:52:57;;;;;;;8.50;4.80;;;;;;;1.46;85.03;96397.28;5034935;28;20192;-78
2021/10/24 04:55:23;;;;;;;10.80;4.83;;;;;;;1.47;84.88;96395.56;5016538;28;20582;-79
2021/10/24 04:57:48;;;;;;;6.37;4.83;;;;;;;1.53;84.82;96388.44;5034831;28;20204;-79
2021/10/24 05:00:14;;;;;;;9.70;5.10;;;;;;;1.57;84.82;96392.50;5034938;28;20408;-78
2021/10/24 05:02:39;;;;;;;9.80;5.43;;;;;;;1.52;84.66;96384.22;5001145;28;20186;-79
2021/10/24 05:05:05;;;;;;;8.47;4.73;;;;;;;1.55;84.90;96385.78;5033444;28;20185;-80
2021/10/24 05:07:31;;;;;;;12.00;5.50;;;;;;;1.57;84.75;96389.09;5000671;28;20251;-81
2021/10/24 05:09:56;;;;;;;10.27;5.30;;;;;;;1.58;85.04;96388.19;5017211;28;20578;-78
2021/10/24 05:12:21;;;;;;;9.90;5.37;;;;;;;1.60;85.27;96386.41;5034836;28;20248;-78
2021/10/24 05:14:47;;;;;;;9.87;5.37;;;;;;;1.70;85.05;96385.06;5016659;28;20179;-78
2021/10/24 05:17:12;;;;;;;10.10;5.80;;;;;;;1.79;84.81;96389.75;5000890;28;20281;-80
2021/10/24 05:19:37;;;;;;;10.37;5.77;;;;;;;1.80;84.57;96385.47;5016954;28;20190;-79
2021/10/24 05:22:03;;;;;;;12.93;5.87;;;;;;;1.81;84.45;96387.13;5017434;28;20185;-79
2021/10/24 05:24:28;;;;;;;7.77;6.07;;;;;;;1.78;84.67;96382.97;5016328;28;20642;-79
2021/10/24 05:26:55;;;;;;;10.10;6.20;;;;;;;1.78;84.96;96390.66;5017465;28;20337;-79
2021/10/24 05:29:20;;;;;;;9.53;6.60;;;;;;;1.79;84.49;96381.25;5016992;28;20297;-79
2021/10/24 05:31:45;;;;;;;8.17;5.73;;;;;;;1.73;84.88;96384.91;5017125;28;20236;-79
2021/10/24 05:34:10;;;;;;;9.27;5.77;;;;;;;1.81;84.79;96377.69;5032773;28;20189;-79
2021/10/24 05:36:36;;;;;;;9.60;5.97;;;;;;;1.87;84.88;96379.97;5000789;28;20187;-79
2021/10/24 05:39:01;;;;;;;12.37;6.23;;;;;;;1.88;84.29;96371.38;5001387;28;20341;-81
2021/10/24 05:41:27;;;;;;;8.73;6.17;;;;;;;1.93;84.50;96366.84;5017212;28;20237;-79
2021/10/24 05:43:54;;;;;;;8.90;5.73;;;;;;;1.88;84.46;96371.38;5016804;28;20756;-79
2021/10/24 05:46:20;;;;;;;8.60;5.60;;;;;;;1.95;84.13;96367.63;5000630;28;20782;-79
2021/10/24 05:48:45;;;;;;;10.00;5.50;;;;;;;2.01;83.70;96363.91;5032967;28;20204;-80
2021/10/24 05:51:10;;;;;;;13.13;6.07;;;;;;;1.96;84.24;96361.59;5000504;28;20550;-80
2021/10/24 05:53:36;;;;;;;7.57;5.93;;;;;;;1.98;84.23;96361.50;5015846;28;20182;-79
2021/10/24 05:56:03;;;;;;;8.77;5.63;;;;;;;2.05;84.14;96352.63;5016990;28;20642;-79
2021/10/24 05:58:28;;;;;;;10.97;6.20;;;;;;;2.15;83.80;96358.94;5017622;28;20210;-79
2021/10/24 06:00:53;;;;;;;9.33;6.10;;;;;;;2.21;83.80;96357.81;5035421;28;20187;-80
2021/10/24 06:03:18;;;;;;;10.07;6.00;;;;;;;2.27;83.84;96360.88;5035388;28;20175;-79
2021/10/24 06:05:44;;;;;;;9.67;6.03;;;;;;;2.25;83.72;96351.63;4999322;28;20187;-80
2021/10/24 06:08:20;;;;;;;12.60;6.47;;;;;;;2.27;83.42;96360.88;5035067;28;20681;-79
2021/10/24 06:10:45;;;;;;;11.60;6.23;;;;;;;2.31;83.32;96358.19;5002197;28;20301;-78
2021/10/24 06:13:10;;;;;;;8.07;6.23;;;;;;;2.34;83.48;96365.72;5017883;28;20612;-78
2021/10/24 06:15:39;;;;;;;9.83;5.87;;;;;;;2.40;83.20;96367.97;5016960;28;20286;-79
2021/10/24 06:18:05;;;;;;;8.83;6.80;;;;;;;2.43;83.18;96368.63;5018309;28;20211;-79
2021/10/24 06:20:30;;;;;;;9.07;5.80;;;;;;;2.47;82.54;96369.28;5017797;28;20171;-79
2021/10/24 06:22:56;;;;;;;9.60;6.43;;;;;;;2.52;82.59;96375.84;5017572;28;20183;-79
2021/10/24 06:25:21;;;;;;;10.43;6.60;;;;;;;2.57;82.66;96375.63;5016514;28;20201;-79
2021/10/24 06:27:47;;;;;;;12.00;7.10;;;;;;;2.54;82.35;96373.22;5017259;28;20202;-78
2021/10/24 06:30:14;;;;;;;11.00;7.03;;;;;;;2.61;82.49;96372.00;5016937;28;20759;-78
2021/10/24 06:32:40;;;;;;;9.03;6.90;;;;;;;2.64;82.43;96378.69;5014946;28;20182;-79
2021/10/24 06:35:06;;;;;;;9.47;5.93;;;;;;;2.63;82.37;96377.03;5015781;28;20279;-80
2021/10/24 06:37:39;;;;;;;9.97;6.70;;;;;;;2.68;82.54;96375.91;5016648;28;20183;-79
2021/10/24 06:40:07;;;;;;;8.33;6.30;;;;;;;2.68;81.92;96378.47;5016332;28;20168;-80
2021/10/24 06:42:32;;;;;;;8.90;5.83;;;;;;;2.73;82.21;96378.22;5016907;28;20184;-78
2021/10/24 06:44:57;;;;;;;9.13;6.23;;;;;;;2.77;82.07;96383.13;5015650;28;20217;-81
2021/10/24 06:47:23;;;;;;;8.30;6.60;;;;;;;2.84;81.82;96373.38;5016845;28;20225;-80
2021/10/24 06:49:48;;;;;;;9.43;6.30;;;;;;;2.82;82.11;96383.69;5036818;28;20213;-78
2021/10/24 06:52:14;;;;;;;9.67;6.63;;;;;;;2.84;81.98;96381.06;5030508;28;20188;-80
2021/10/24 06:54:39;;;;;;;9.60;6.10;;;;;;;3.00;81.49;96375.94;5049991;28;20228;-79
2021/10/24 06:57:04;;;;;;;7.20;5.87;;;;;;;3.00;81.33;96384.47;5034390;28;20641;-80
2021/10/24 06:59:29;;;;;;;11.50;6.37;;;;;;;3.11;80.73;96383.91;5052718;28;20244;-80
2021/10/24 07:01:55;;;;;;;9.77;5.43;;;;;;;3.19;80.26;96384.34;5034999;28;20187;-79
2021/10/24 07:04:20;;;;;;;9.83;5.27;;;;;;;3.22;80.52;96378.19;5033236;28;20210;-79
2021/10/24 07:06:46;;;;;;;7.27;5.37;;;;;;;3.23;80.24;96377.28;5017380;28;20300;-79
2021/10/24 07:09:11;;;;;;;8.00;5.20;;;;;;;3.36;79.92;96370.59;5050503;28;20221;-80
2021/10/24 07:11:37;;;;;;;10.03;5.53;;;;;;;3.42;79.79;96375.38;5033910;28;20186;-79
2021/10/24 07:14:02;;;;;;;7.17;5.60;;;;;;;3.46;79.40;96373.47;5033220;28;20175;-80
2021/10/24 07:16:27;;;;;;;9.03;5.63;;;;;;;3.48;79.11;96377.63;5033859;28;20189;-80
2021/10/24 07:18:52;;;;;;;7.73;5.27;;;;;;;3.51;79.18;96379.19;5033737;28;20214;-79
2021/10/24 07:21:18;;;;;;;10.00;5.27;;;;;;;3.55;79.20;96372.97;5034283;28;20182;-80
2021/10/24 07:23:43;;;;;;;11.00;5.60;;;;;;;3.59;78.79;96372.72;5034078;28;20608;-80
2021/10/24 07:26:09;;;;;;;8.57;5.93;;;;;;;3.64;78.88;96372.47;5017338;28;20538;-80
2021/10/24 07:28:34;;;;;;;7.70;5.57;;;;;;;3.70;78.30;96375.50;5017673;28;20223;-80
2021/10/24 07:30:59;;;;;;;7.67;5.30;;;;;;;3.86;78.08;96374.66;5034801;28;20592;-80
2021/10/24 07:33:25;;;;;;;10.90;5.73;;;;;;;3.85;78.10;96378.13;5017072;28;20552;-79
2021/10/24 07:35:50;;;;;;;8.33;5.47;;;;;;;3.92;77.59;96377.72;5049705;28;20168;-80
2021/10/24 07:38:16;;;;;;;8.17;5.37;;;;;;;3.99;77.84;96393.63;5018030;28;20209;-80
2021/10/24 07:40:49;;;;;;;10.10;6.60;;;;;;;3.98;77.96;96386.81;5036409;28;20176;-82
2021/10/24 07:43:15;;;;;;;8.97;5.57;;;;;;;3.98;77.94;96384.25;5051717;28;20209;-82
2021/10/24 07:45:41;;;;;;;8.03;5.10;;;;;;;4.12;77.42;96386.84;5033891;28;20907;-83
2021/10/24 07:48:06;;;;;;;6.87;5.20;;;;;;;4.18;77.42;96386.50;5034767;28;20228;-83
2021/10/24 07:50:31;;;;;;;7.67;5.10;;;;;;;4.30;77.16;96384.13;5033670;28;20262;-83
2021/10/24 07:52:59;;;;;;;9.93;6.87;;;;;;;4.41;76.31;96386.91;5034004;28;20183;-79
2021/10/24 07:55:24;;;;;;;11.87;7.80;;;;;;;4.45;76.64;96380.69;5033440;28;20672;-78
2021/10/24 07:57:49;;;;;;;7.97;5.87;;;;;;;4.49;76.48;96387.28;5023355;28;20252;-79
2021/10/24 08:00:15;;;;;;;8.27;5.13;;;;;;;4.58;76.04;96383.34;5045739;28;20189;-78
2021/10/24 08:02:40;;;;;;;9.97;5.90;;;;;;;4.66;75.92;96373.44;5015269;28;20184;-79
2021/10/24 08:05:05;;;;;;;11.47;5.23;;;;;;;4.76;75.43;96377.94;5032816;28;20186;-79
2021/10/24 08:07:35;;;;;;;10.17;5.13;;;;;;;4.80;75.00;96379.41;5052005;28;20177;-80
2021/10/24 08:10:00;;;;;;;9.80;5.67;;;;;;;4.90;75.17;96378.84;5034867;28;20201;-79
2021/10/24 08:12:29;;;;;;;10.03;4.70;;;;;;;4.95;74.80;96382.00;5050472;28;20185;-79
2021/10/24 08:14:54;;;;;;;6.37;4.70;;;;;;;5.04;74.46;96381.44;5033331;28;20680;-79
2021/10/24 08:17:19;;;;;;;6.90;4.97;;;;;;;5.03;74.31;96377.19;5050510;28;20169;-79
2021/10/24 08:19:45;;;;;;;12.07;5.00;;;;;;;5.17;74.36;96378.94;5017795;28;20177;-79
2021/10/24 08:22:10;;;;;;;8.70;5.23;;;;;;;5.18;74.40;96389.13;5033678;28;20174;-81
2021/10/24 08:24:35;;;;;;;9.03;4.90;;;;;;;5.29;73.99;96384.13;5034944;28;20697;-78
2021/10/24 08:27:01;;;;;;;7.67;5.00;;;;;;;5.27;73.80;96377.44;5018029;28;20540;-82
2021/10/24 08:29:26;;;;;;;7.77;5.40;;;;;;;5.37;73.93;96374.19;5034030;28;20232;-80
2021/10/24 08:31:54;;;;;;;7.70;5.20;;;;;;;5.46;73.64;96377.94;5035847;28;20228;-79
2021/10/24 08:34:21;;;;;;;10.37;5.13;;;;;;;5.54;73.04;96385.19;5052860;28;20265;-79
2021/10/24 08:36:47;;;;;;;8.77;5.27;;;;;;;5.56;72.47;96381.59;5018367;28;20180;-79
2021/10/24 08:39:13;;;;;;;8.47;5.00;;;;;;;5.68;71.73;96382.59;5034261;28;20193;-79
2021/10/24 08:41:39;;;;;;;9.83;5.50;;;;;;;5.77;71.63;96384.56;5018887;28;20188;-80
2021/10/24 08:44:06;;;;;;;8.57;5.00;;;;;;;5.78;71.74;96387.97;5052583;28;20178;-80
2021/10/24 08:46:32;;;;;;;5.90;4.90;;;;;;;5.85;72.28;96387.50;5034164;28;20220;-79
2021/10/24 08:48:57;;;;;;;5.30;4.80;;;;;;;5.93;71.81;96382.69;5034976;28;20200;-79
2021/10/24 08:51:25;;;;;;;8.07;4.90;;;;;;;6.00;71.23;96385.69;5051958;28;20249;-79
2021/10/24 08:53:51;;;;;;;11.00;4.87;;;;;;;6.04;71.06;96388.91;5034570;28;20198;-80
2021/10/24 08:56:18;;;;;;;9.53;5.43;;;;;;;6.17;71.40;96379.44;5053074;28;20240;-79
2021/10/24 08:58:45;;;;;;;9.40;5.23;;;;;;;6.18;70.79;96386.25;5035117;28;20574;-80
2021/10/24 09:01:11;;;;;;;6.33;4.57;;;;;;;6.29;69.50;96388.97;5052245;28;20174;-80
2021/10/24 09:03:37;;;;;;;6.80;4.63;;;;;;;6.32;70.38;96388.75;5050772;28;20185;-80
2021/10/24 09:06:02;;;;;;;6.67;4.50;;;;;;;6.43;70.55;96388.88;5051584;28;20182;-79
2021/10/24 09:08:28;;;;;;;5.77;4.43;;;;;;;6.43;69.39;96388.03;5034913;28;20307;-80
2021/10/24 09:10:55;;;;;;;6.10;4.63;;;;;;;6.50;69.60;96381.56;5051605;28;20210;-79
2021/10/24 09:13:41;;;;;;;10.57;4.80;;;;;;;6.59;69.19;96380.94;5050852;28;20232;-79
2021/10/24 09:16:07;;;;;;;7.27;4.83;;;;;;;6.60;69.50;96379.19;5052516;28;20731;-80
2021/10/24 09:18:39;;;;;;;5.70;4.40;;;;;;;6.71;68.74;96387.84;5055297;28;20205;-79
2021/10/24 09:21:18;;;;;;;6.80;4.53;;;;;;;6.89;67.63;96382.38;5037816;28;20186;-80
2021/10/24 09:23:44;;;;;;;7.27;4.40;;;;;;;6.94;67.73;96369.97;5037390;28;20193;-80
2021/10/24 09:26:24;;;;;;;9.53;4.53;;;;;;;6.95;67.75;96380.19;5054891;28;20267;-79
2021/10/24 09:29:16;;;;;;;6.53;4.03;;;;;;;6.99;67.66;96376.50;5037843;28;20221;-80
2021/10/24 09:31:51;;;;;;;7.50;5.53;;;;;;;7.04;67.15;96371.81;5035326;28;20692;-80
2021/10/24 09:34:21;;;;;;;7.10;4.30;;;;;;;7.14;66.28;96376.34;5055438;28;20169;-80
2021/10/24 09:36:52;;;;;;;7.30;5.03;;;;;;;7.30;67.20;96370.00;5055023;28;20524;-80
2021/10/24 09:39:18;;;;;;;6.87;4.10;;;;;;;7.36;65.20;96377.34;5037843;28;20607;-79
2021/10/24 09:41:43;;;;;;;5.80;3.73;;;;;;;7.48;64.34;96373.06;5037451;28;20232;-79
2021/10/24 09:44:16;;;;;;;7.00;3.47;;;;;;;7.49;64.17;96377.28;5037205;28;20192;-80
2021/10/24 09:46:54;;;;;;;6.20;3.70;;;;;;;7.59;64.39;96377.47;5054039;28;20185;-80
2021/10/24 09:49:20;;;;;;;3.73;3.10;;;;;;;7.65;63.81;96370.09;5037960;28;20205;-79
2021/10/24 09:51:46;;;;;;;5.50;3.40;;;;;;;7.77;63.93;96378.72;5038205;28;20296;-79
2021/10/24 09:54:21;;;;;;;5.50;3.30;;;;;;;7.89;63.97;96375.28;5037326;28;20182;-80
2021/10/24 09:56:48;;;;;;;5.10;3.40;;;;;;;7.91;63.27;96388.09;5037980;28;20199;-79
2021/10/24 09:59:16;;;;;;;4.30;2.90;;;;;;;7.98;61.65;96378.97;5054362;28;20213;-79
2021/10/24 10:01:44;;;;;;;4.23;3.20;;;;;;;7.84;62.02;96379.13;5037694;28;20232;-79
2021/10/24 10:04:11;;;;;;;5.87;3.10;;;;;;;8.05;61.76;96382.75;5041333;28;20197;-79
2021/10/24 10:06:36;;;;;;;3.37;2.70;;;;;;;8.03;61.16;96373.44;5055747;28;20178;-79
2021/10/24 10:09:02;;;;;;;4.47;3.30;;;;;;;8.16;60.63;96371.63;5053878;28;20604;-79
2021/10/24 10:11:31;;;;;;;4.47;3.10;;;;;;;8.23;60.27;96378.00;5054223;28;20186;-80
2021/10/24 10:14:01;;;;;;;4.77;3.00;;;;;;;8.31;59.78;96373.09;5053240;28;20181;-80
2021/10/24 10:16:31;;;;;;;3.57;2.73;;;;;;;8.38;58.78;96376.88;5037686;28;20181;-78
2021/10/24 10:18:56;;;;;;;3.50;2.87;;;;;;;8.33;59.68;96372.97;5054001;28;20228;-80
2021/10/24 10:21:42;;;;;;;2.70;2.37;;;;;;;8.37;59.38;96374.41;5055245;28;20205;-79
2021/10/24 10:24:36;;;;;;;5.30;2.40;;;;;;;8.44;59.93;96367.84;5036695;28;20170;-79
2021/10/24 10:27:36;;;;;;;5.70;2.90;;;;;;;8.55;59.72;96367.03;5052773;28;20653;-79
2021/10/24 10:30:14;;;;;;;4.83;2.80;;;;;;;8.61;59.82;96372.59;5054018;28;20570;-79
2021/10/24 10:32:45;;;;;;;5.40;3.87;;;;;;;8.64;60.47;96374.09;5037076;28;20241;-80
2021/10/24 10:35:11;;;;;;;4.33;3.23;;;;;;;8.71;60.05;96372.72;5036516;28;20173;-79
2021/10/24 10:37:55;;;;;;;5.67;3.20;;;;;;;8.78;60.21;96368.72;5055206;28;20201;-79
2021/10/24 10:40:35;;;;;;;4.33;3.40;;;;;;;8.88;60.19;96363.66;5037032;28;20235;-79
2021/10/24 10:43:02;;;;;;;4.30;2.50;;;;;;;8.92;59.44;96368.50;5036769;28;20174;-80
2021/10/24 10:45:34;;;;;;;3.40;2.93;;;;;;;8.94;59.94;96364.03;5034747;28;20181;-79
2021/10/24 10:48:00;;;;;;;4.83;2.80;;;;;;;8.98;59.06;96360.25;5054690;28;20256;-79
2021/10/24 10:50:29;;;;;;;4.53;3.30;;;;;;;8.98;59.71;96364.59;5053589;28;20206;-79
2021/10/24 10:53:05;;;;;;;3.80;3.07;;;;;;;9.14;59.44;96356.47;5054543;28;20180;-79
2021/10/24 10:55:55;;;;;;;5.80;2.90;;;;;;;9.14;60.61;96357.31;5036650;28;20330;-79
2021/10/24 10:58:33;;;;;;;3.97;3.03;;;;;;;9.19;60.12;96352.59;5054912;28;20201;-79
2021/10/24 11:00:59;;;;;;;5.93;2.90;;;;;;;9.36;59.38;96354.69;5037317;28;20265;-79
2021/10/24 11:04:02;;;;;;;4.93;3.10;;;;;;;9.28;59.53;96351.06;5053116;28;20205;-80
2021/10/24 11:06:27;;;;;;;7.67;3.60;;;;;;;9.37;59.05;96350.34;5053986;28;20166;-80
2021/10/24 11:08:54;;;;;;;4.40;2.83;;;;;;;9.44;58.35;96356.66;5036098;28;20224;-79
2021/10/24 11:11:39;;;;;;;3.73;2.83;;;;;;;9.56;59.66;96347.13;5052902;28;20181;-80
2021/10/24 11:14:11;;;;;;;4.50;2.80;;;;;;;9.63;59.21;96351.69;5035136;28;20189;-79
2021/10/24 11:16:39;;;;;;;3.43;3.07;;;;;;;9.71;59.18;96356.25;5035893;28;20185;-79
2021/10/24 11:19:31;;;;;;;5.83;2.90;;;;;;;9.85;59.25;96345.59;5053715;28;20436;-79
2021/10/24 11:21:58;;;;;;;5.37;3.50;;;;;;;9.76;58.78;96340.31;5036505;28;20178;-79
2021/10/24 11:24:36;;;;;;;6.50;2.90;;;;;;;9.91;59.51;96339.94;5018552;28;20178;-79
2021/10/24 11:27:03;;;;;;;3.43;3.07;;;;;;;9.86;58.25;96331.69;5036211;28;20564;-79
2021/10/24 11:29:29;;;;;;;3.80;3.00;;;;;;;9.92;58.34;96336.38;5036075;28;20202;-79
2021/10/24 11:32:14;;;;;;;5.70;3.20;;;;;;;9.98;58.16;96327.25;5035995;28;20276;-79
2021/10/24 11:34:40;;;;;;;3.90;3.00;;;;;;;10.04;58.23;96329.34;5035459;28;20174;-77
2021/10/24 11:37:05;;;;;;;4.90;2.93;;;;;;;10.02;56.92;96333.03;5052927;28;20599;-79
2021/10/24 11:39:31;;;;;;;5.87;3.10;;;;;;;10.01;56.88;96329.63;5054674;28;20280;-79